createdAt,value
2023-05-14T00:01:04.091Z,1.00
2023-05-14T00:03:31.455Z,0.70
2023-05-14T00:05:58.467Z,0.80
2023-05-14T00:08:25.322Z,1.20
2023-05-14T00:10:52.449Z,0.97
2023-05-14T00:13:19.263Z,0.80
2023-05-14T00:15:45.973Z,0.80
2023-05-14T00:18:12.756Z,0.90
2023-05-14T00:20:39.661Z,1.27
2023-05-14T00:23:06.396Z,0.93
2023-05-14T00:25:33.053Z,0.83
2023-05-14T00:27:59.794Z,1.20
2023-05-14T00:30:26.575Z,2.10
2023-05-14T00:32:53.319Z,1.27
2023-05-14T00:35:21.635Z,1.10
2023-05-14T00:37:48.668Z,0.70
2023-05-14T00:40:15.469Z,1.13
2023-05-14T00:42:42.314Z,0.67
2023-05-14T00:45:09.429Z,0.93
2023-05-14T00:47:36.616Z,0.53
2023-05-14T00:50:04.283Z,1.27
2023-05-14T00:52:32.233Z,1.07
2023-05-14T00:54:59.438Z,1.00
2023-05-14T00:57:26.154Z,0.60
2023-05-14T00:59:53.173Z,0.90
2023-05-14T01:02:20.009Z,0.90
2023-05-14T01:04:46.869Z,1.10
2023-05-14T01:07:25.871Z,0.70
2023-05-14T01:10:01.677Z,0.80
2023-05-14T01:12:31.329Z,0.93
2023-05-14T01:15:21.725Z,1.00
2023-05-14T01:18:00.603Z,0.73
2023-05-14T01:20:27.578Z,0.90
2023-05-14T01:22:54.345Z,1.00
2023-05-14T01:25:21.086Z,0.60
2023-05-14T01:27:50.702Z,0.53
2023-05-14T01:30:30.068Z,0.80
2023-05-14T01:33:00.601Z,1.00
2023-05-14T01:35:28.871Z,0.57
2023-05-14T01:38:01.320Z,0.90
2023-05-14T01:40:28.400Z,0.87
2023-05-14T01:42:55.302Z,0.50
2023-05-14T01:45:22.678Z,0.70
2023-05-14T01:47:49.719Z,0.57
2023-05-14T01:50:16.895Z,0.80
2023-05-14T01:52:43.801Z,0.73
2023-05-14T01:55:10.873Z,0.80
2023-05-14T01:57:37.655Z,0.87
2023-05-14T02:00:04.853Z,0.60
2023-05-14T02:02:31.770Z,0.70
2023-05-14T02:04:58.568Z,0.70
2023-05-14T02:07:25.598Z,0.60
2023-05-14T02:09:52.352Z,1.20
2023-05-14T02:12:19.227Z,0.77
2023-05-14T02:14:46.026Z,1.07
2023-05-14T02:17:15.950Z,0.73
2023-05-14T02:19:42.735Z,0.83
2023-05-14T02:22:09.431Z,1.20
2023-05-14T02:24:36.287Z,0.50
2023-05-14T02:27:03.074Z,1.07
2023-05-14T02:29:29.920Z,1.00
2023-05-14T02:31:57.075Z,0.57
2023-05-14T02:34:24.095Z,0.70
2023-05-14T02:36:50.792Z,0.67
2023-05-14T02:39:17.537Z,0.60
2023-05-14T02:41:44.272Z,1.00
2023-05-14T02:44:11.000Z,0.97
2023-05-14T02:46:37.678Z,0.73
2023-05-14T02:49:04.461Z,0.80
2023-05-14T02:51:31.153Z,0.67
2023-05-14T02:53:57.929Z,0.90
2023-05-14T02:56:24.682Z,0.90
2023-05-14T02:58:51.372Z,1.20
2023-05-14T03:01:18.972Z,0.70
2023-05-14T03:03:46.103Z,1.03
2023-05-14T03:06:13.214Z,1.00
2023-05-14T03:08:39.992Z,1.00
2023-05-14T03:11:06.998Z,1.07
2023-05-14T03:13:33.727Z,0.93
2023-05-14T03:16:00.447Z,0.93
2023-05-14T03:18:28.531Z,1.00
2023-05-14T03:20:55.235Z,1.23
2023-05-14T03:23:22.063Z,2.00
2023-05-14T03:25:48.827Z,0.57
2023-05-14T03:28:15.671Z,0.80
2023-05-14T03:30:42.427Z,0.60
2023-05-14T03:33:09.227Z,1.90
2023-05-14T03:35:35.942Z,1.20
2023-05-14T03:38:02.645Z,1.50
2023-05-14T03:40:29.346Z,1.37
2023-05-14T03:42:56.250Z,0.90
2023-05-14T03:45:22.989Z,1.30
2023-05-14T03:47:49.752Z,1.07
2023-05-14T03:50:16.563Z,1.30
2023-05-14T03:52:43.750Z,1.20
2023-05-14T03:55:10.607Z,1.43
2023-05-14T03:57:37.403Z,1.20
2023-05-14T04:00:05.067Z,1.90
2023-05-14T04:02:31.976Z,0.97
2023-05-14T04:04:58.699Z,1.60
2023-05-14T04:07:25.471Z,2.00
2023-05-14T04:09:52.226Z,1.37
2023-05-14T04:12:19.361Z,1.47
2023-05-14T04:14:46.024Z,1.20
2023-05-14T04:17:12.785Z,1.60
2023-05-14T04:19:40.502Z,1.43
2023-05-14T04:22:07.120Z,1.33
2023-05-14T04:24:33.716Z,1.03
2023-05-14T04:27:00.565Z,1.10
2023-05-14T04:29:27.367Z,1.63
2023-05-14T04:31:53.981Z,1.40
2023-05-14T04:34:20.676Z,1.53
2023-05-14T04:36:47.360Z,1.87
2023-05-14T04:39:13.927Z,1.73
2023-05-14T04:41:40.935Z,1.90
2023-05-14T04:44:07.671Z,1.63
2023-05-14T04:46:34.388Z,1.40
2023-05-14T04:49:01.066Z,1.67
2023-05-14T04:51:28.004Z,2.80
2023-05-14T04:53:55.854Z,1.43
2023-05-14T04:56:22.519Z,1.93
2023-05-14T04:58:49.120Z,1.43
2023-05-14T05:01:15.873Z,1.43
2023-05-14T05:03:42.553Z,1.47
2023-05-14T05:06:09.152Z,1.80
2023-05-14T05:08:36.792Z,1.23
2023-05-14T05:11:03.504Z,1.77
2023-05-14T05:13:30.119Z,1.37
2023-05-14T05:15:56.848Z,1.40
2023-05-14T05:18:23.499Z,2.13
2023-05-14T05:20:50.149Z,1.10
2023-05-14T05:23:16.899Z,1.47
2023-05-14T05:25:43.561Z,0.90
2023-05-14T05:28:10.140Z,1.20
2023-05-14T05:30:36.826Z,1.77
2023-05-14T05:33:03.769Z,1.17
2023-05-14T05:35:30.415Z,1.20
2023-05-14T05:37:59.846Z,1.80
2023-05-14T05:40:28.173Z,2.10
2023-05-14T05:42:54.878Z,1.30
2023-05-14T05:45:21.723Z,1.80
2023-05-14T05:47:48.429Z,1.67
2023-05-14T05:50:15.123Z,2.00
2023-05-14T05:52:41.718Z,3.77
2023-05-14T05:55:08.792Z,3.07
2023-05-14T05:57:35.431Z,4.07
2023-05-14T06:00:12.461Z,5.20
2023-05-14T06:02:40.120Z,3.70
2023-05-14T06:05:08.132Z,5.87
2023-05-14T06:07:34.836Z,4.27
2023-05-14T06:10:01.582Z,4.10
2023-05-14T06:12:28.294Z,3.63
2023-05-14T06:14:55.782Z,1.97
2023-05-14T06:17:22.419Z,3.17
2023-05-14T06:19:48.988Z,2.80
2023-05-14T06:22:15.638Z,3.10
2023-05-14T06:24:42.233Z,2.83
2023-05-14T06:27:10.702Z,2.50
2023-05-14T06:29:37.909Z,2.40
2023-05-14T06:32:04.982Z,1.60
2023-05-14T06:34:31.874Z,1.90
2023-05-14T06:36:58.607Z,1.27
2023-05-14T06:39:25.664Z,1.90
2023-05-14T06:41:52.325Z,2.10
2023-05-14T06:44:19.714Z,1.30
2023-05-14T06:46:46.389Z,1.47
2023-05-14T06:49:13.097Z,1.50
2023-05-14T06:51:40.786Z,1.20
2023-05-14T06:54:07.580Z,5.57
2023-05-14T06:56:34.758Z,3.20
2023-05-14T06:59:01.364Z,3.17
2023-05-14T07:01:28.154Z,3.77
2023-05-14T07:03:54.867Z,3.80
2023-05-14T07:06:21.892Z,3.87
2023-05-14T07:08:48.487Z,3.53
2023-05-14T07:11:15.646Z,5.40
2023-05-14T07:13:43.103Z,10.67
2023-05-14T07:16:10.469Z,14.00
2023-05-14T07:18:37.495Z,10.50
2023-05-14T07:21:07.009Z,3.33
2023-05-14T07:23:36.305Z,3.23
2023-05-14T07:26:03.367Z,4.93
2023-05-14T07:28:30.077Z,5.30
2023-05-14T07:30:56.841Z,4.13
2023-05-14T07:33:24.097Z,2.30
2023-05-14T07:35:50.997Z,1.50
2023-05-14T07:38:17.713Z,1.30
2023-05-14T07:40:44.413Z,1.40
2023-05-14T07:43:11.308Z,1.60
2023-05-14T07:45:39.302Z,1.37
2023-05-14T07:48:06.211Z,2.20
2023-05-14T07:50:32.961Z,1.67
2023-05-14T07:52:59.680Z,0.90
2023-05-14T07:55:26.412Z,1.70
2023-05-14T07:57:53.173Z,1.70
2023-05-14T08:00:20.130Z,1.10
2023-05-14T08:02:47.043Z,1.43
2023-05-14T08:05:13.764Z,1.57
2023-05-14T08:07:41.458Z,1.43
2023-05-14T08:10:08.680Z,1.10
2023-05-14T08:12:35.387Z,2.37
2023-05-14T08:15:02.449Z,1.40
2023-05-14T08:17:29.113Z,2.07
2023-05-14T08:19:55.919Z,1.47
2023-05-14T08:22:22.552Z,1.90
2023-05-14T08:24:49.160Z,2.07
2023-05-14T08:27:16.736Z,1.40
2023-05-14T08:29:43.488Z,1.70
2023-05-14T08:32:22.156Z,1.40
2023-05-14T08:34:49.800Z,1.13
2023-05-14T08:37:16.452Z,1.97
2023-05-14T08:39:43.077Z,1.10
2023-05-14T08:42:12.862Z,1.43
2023-05-14T08:44:44.084Z,1.20
2023-05-14T08:47:11.762Z,0.93
2023-05-14T08:49:43.112Z,1.07
2023-05-14T08:52:10.237Z,2.03
2023-05-14T08:54:37.007Z,1.80
2023-05-14T08:57:04.746Z,1.63
2023-05-14T08:59:31.925Z,1.30
2023-05-14T09:02:01.964Z,3.20
2023-05-14T09:04:29.788Z,1.53
2023-05-14T09:06:56.427Z,1.40
2023-05-14T09:09:23.670Z,1.70
2023-05-14T09:11:51.767Z,2.00
2023-05-14T09:14:18.915Z,1.90
2023-05-14T09:16:47.837Z,2.10
2023-05-14T09:19:15.955Z,2.23
2023-05-14T09:21:45.727Z,2.30
2023-05-14T09:24:26.395Z,1.80
2023-05-14T09:26:54.821Z,1.67
2023-05-14T09:29:21.546Z,1.77
2023-05-14T09:31:50.594Z,1.30
2023-05-14T09:34:34.022Z,1.40
2023-05-14T09:37:09.257Z,1.70
2023-05-14T09:39:37.289Z,1.80
2023-05-14T09:42:04.390Z,1.80
2023-05-14T09:44:31.947Z,1.80
2023-05-14T09:46:58.719Z,1.90
2023-05-14T09:49:25.510Z,1.90
2023-05-14T09:51:52.337Z,1.50
2023-05-14T09:54:19.063Z,2.60
2023-05-14T09:56:45.820Z,1.50
2023-05-14T09:59:12.501Z,2.33
2023-05-14T10:01:39.638Z,1.90
2023-05-14T10:04:07.882Z,2.80
2023-05-14T10:06:38.026Z,2.23
2023-05-14T10:09:13.144Z,1.97
2023-05-14T10:11:43.076Z,4.10
2023-05-14T10:14:27.390Z,3.10
2023-05-14T10:16:56.582Z,2.30
2023-05-14T10:19:25.674Z,1.50
2023-05-14T10:22:04.559Z,1.47
2023-05-14T10:24:31.688Z,3.20
2023-05-14T10:26:58.962Z,1.70
2023-05-14T10:29:34.156Z,3.70
2023-05-14T10:32:04.977Z,2.40
2023-05-14T10:34:43.853Z,1.87
2023-05-14T10:37:22.045Z,2.10
2023-05-14T10:40:02.050Z,2.23
2023-05-14T10:42:43.593Z,1.90
2023-05-14T10:45:14.459Z,1.70
2023-05-14T10:47:46.054Z,1.50
2023-05-14T10:50:14.691Z,1.40
2023-05-14T10:52:43.546Z,2.20
2023-05-14T10:55:13.714Z,1.73
2023-05-14T10:57:42.898Z,1.80
2023-05-14T11:00:10.877Z,1.70
2023-05-14T11:02:39.221Z,1.77
2023-05-14T11:05:13.770Z,2.73
2023-05-14T11:07:47.630Z,2.90
2023-05-14T11:10:16.990Z,2.93
2023-05-14T11:12:45.371Z,1.80
2023-05-14T11:15:14.310Z,3.70
2023-05-14T11:17:42.291Z,14.57
2023-05-14T11:20:10.071Z,3.17
2023-05-14T11:22:37.584Z,2.17
2023-05-14T11:25:05.333Z,1.70
2023-05-14T11:27:34.453Z,1.80
2023-05-14T11:30:01.593Z,1.50
2023-05-14T11:32:28.382Z,2.30
2023-05-14T11:34:55.041Z,1.70
2023-05-14T11:37:21.727Z,1.87
2023-05-14T11:39:50.728Z,1.60
2023-05-14T11:42:18.682Z,1.83
2023-05-14T11:44:52.540Z,1.63
2023-05-14T11:47:20.745Z,1.33
2023-05-14T11:49:48.736Z,1.30
2023-05-14T11:52:16.273Z,2.70
2023-05-14T11:54:44.357Z,2.07
2023-05-14T11:57:13.226Z,1.17
2023-05-14T11:59:40.574Z,1.40
2023-05-14T12:02:12.267Z,1.13
2023-05-14T12:04:39.590Z,1.10
2023-05-14T12:07:14.908Z,1.80
2023-05-14T12:09:49.770Z,1.27
2023-05-14T12:12:25.759Z,1.90
2023-05-14T12:14:53.030Z,1.30
2023-05-14T12:17:21.782Z,1.63
2023-05-14T12:19:50.842Z,2.00
2023-05-14T12:22:21.785Z,1.70
2023-05-14T12:24:59.224Z,1.53
2023-05-14T12:27:27.732Z,2.30
2023-05-14T12:32:35.830Z,1.30
2023-05-14T12:35:02.588Z,1.83
2023-05-14T12:37:31.127Z,1.40
2023-05-14T12:39:57.986Z,1.53
2023-05-14T12:42:24.709Z,1.40
2023-05-14T12:44:51.335Z,1.30
2023-05-14T12:47:18.346Z,1.70
2023-05-14T12:49:45.049Z,1.03
2023-05-14T12:54:43.441Z,1.80
2023-05-14T12:57:10.361Z,2.00
2023-05-14T12:59:37.112Z,1.20
2023-05-14T13:02:03.850Z,1.10
2023-05-14T13:04:30.554Z,1.53
2023-05-14T13:06:57.259Z,1.40
2023-05-14T13:09:23.941Z,1.33
2023-05-14T13:11:50.668Z,1.10
2023-05-14T13:14:18.383Z,1.67
2023-05-14T13:16:46.808Z,1.90
2023-05-14T13:19:13.579Z,1.80
2023-05-14T13:21:40.439Z,1.80
2023-05-14T13:24:07.335Z,2.27
2023-05-14T13:26:34.056Z,2.43
2023-05-14T13:29:00.779Z,2.40
2023-05-14T13:31:27.647Z,1.80
2023-05-14T13:33:54.562Z,1.50
2023-05-14T13:36:21.507Z,1.93
2023-05-14T13:38:48.560Z,1.83
2023-05-14T13:41:15.342Z,1.60
2023-05-14T13:43:42.175Z,1.60
2023-05-14T13:46:09.016Z,1.77
2023-05-14T13:48:37.303Z,1.07
2023-05-14T13:51:04.065Z,1.80
2023-05-14T13:53:30.954Z,1.53
2023-05-14T13:55:58.667Z,1.80
2023-05-14T13:58:25.834Z,1.77
2023-05-14T14:00:53.425Z,1.30
2023-05-14T14:03:20.377Z,1.33
2023-05-14T14:05:47.106Z,2.17
2023-05-14T14:10:48.617Z,2.03
2023-05-14T14:13:15.321Z,2.17
2023-05-14T14:15:42.658Z,1.57
2023-05-14T14:18:09.429Z,1.30
2023-05-14T14:20:36.473Z,1.33
2023-05-14T14:23:03.127Z,1.60
2023-05-14T14:25:29.877Z,1.23
2023-05-14T14:27:56.654Z,1.40
2023-05-14T14:30:23.459Z,1.53
2023-05-14T14:32:50.855Z,1.37
2023-05-14T14:35:18.981Z,2.97
2023-05-14T14:37:49.379Z,1.77
2023-05-14T14:40:17.195Z,2.03
2023-05-14T14:42:44.780Z,1.40
2023-05-14T14:45:12.500Z,2.10
2023-05-14T14:47:44.147Z,1.40
2023-05-14T14:50:11.392Z,1.33
2023-05-14T14:52:38.398Z,1.47
2023-05-14T14:55:05.706Z,1.47
2023-05-14T14:57:32.560Z,1.60
2023-05-14T15:00:01.423Z,1.53
2023-05-14T15:02:29.149Z,1.60
2023-05-14T15:04:55.988Z,1.90
2023-05-14T15:07:22.898Z,1.63
2023-05-14T15:09:49.608Z,1.70
2023-05-14T15:12:17.198Z,2.17
2023-05-14T15:14:43.969Z,1.73
2023-05-14T15:17:10.857Z,1.57
2023-05-14T15:19:37.472Z,2.00
2023-05-14T15:22:04.776Z,1.83
2023-05-14T15:24:31.639Z,1.47
2023-05-14T15:26:58.300Z,2.17
2023-05-14T15:29:24.938Z,3.20
2023-05-14T15:31:51.791Z,3.37
2023-05-14T15:34:18.453Z,3.20
2023-05-14T15:36:45.057Z,2.50
2023-05-14T15:39:12.302Z,2.60
2023-05-14T15:41:38.965Z,3.63
2023-05-14T15:44:05.732Z,4.43
2023-05-14T15:46:32.748Z,2.87
2023-05-14T15:48:59.528Z,3.40
2023-05-14T15:51:26.204Z,3.60
2023-05-14T15:53:54.307Z,3.10
2023-05-14T15:56:22.406Z,1.60
2023-05-14T15:58:49.666Z,1.70
2023-05-14T16:01:16.434Z,2.03
2023-05-14T16:03:43.273Z,2.73
2023-05-14T16:06:11.232Z,3.60
2023-05-14T16:08:38.435Z,3.33
2023-05-14T16:11:06.262Z,3.70
2023-05-14T16:13:33.152Z,2.07
2023-05-14T16:16:00.050Z,2.00
2023-05-14T16:18:26.994Z,1.97
2023-05-14T16:20:53.763Z,2.57
2023-05-14T16:23:20.563Z,4.57
2023-05-14T16:25:47.278Z,1.80
2023-05-14T16:28:14.197Z,2.23
2023-05-14T16:30:40.989Z,1.53
2023-05-14T16:33:07.753Z,1.63
2023-05-14T16:35:34.596Z,1.53
2023-05-14T16:38:01.843Z,1.30
2023-05-14T16:40:28.566Z,1.40
2023-05-14T16:42:55.245Z,2.10
2023-05-14T16:45:22.145Z,3.60
2023-05-14T16:47:48.962Z,2.40
2023-05-14T16:50:16.076Z,2.90
2023-05-14T16:52:43.007Z,1.97
2023-05-14T16:55:09.862Z,1.33
2023-05-14T16:57:36.472Z,1.80
2023-05-14T17:00:06.221Z,2.30
2023-05-14T17:02:33.889Z,1.93
2023-05-14T17:05:00.733Z,1.97
2023-05-14T17:07:27.660Z,2.73
2023-05-14T17:09:54.415Z,1.73
2023-05-14T17:12:21.536Z,1.43
2023-05-14T17:14:48.265Z,1.30
2023-05-14T17:17:14.949Z,1.33
2023-05-14T17:19:42.423Z,1.70
2023-05-14T17:22:09.178Z,1.80
2023-05-14T17:24:36.652Z,1.33
2023-05-14T17:27:03.485Z,1.77
2023-05-14T17:29:30.214Z,1.07
2023-05-14T17:31:57.115Z,1.33
2023-05-14T17:34:24.144Z,1.87
2023-05-14T17:36:50.901Z,1.73
2023-05-14T17:39:17.539Z,0.83
2023-05-14T17:41:44.252Z,0.90
2023-05-14T17:44:12.825Z,1.10
2023-05-14T17:46:40.086Z,1.20
2023-05-14T17:49:06.689Z,0.67
2023-05-14T17:51:33.454Z,0.87
2023-05-14T17:54:00.117Z,0.70
2023-05-14T17:56:26.982Z,0.60
2023-05-14T17:58:53.565Z,1.07
2023-05-14T18:01:20.303Z,0.40
2023-05-14T18:03:47.622Z,0.97
2023-05-14T18:06:15.130Z,0.50
2023-05-14T18:08:41.889Z,1.00
2023-05-14T18:11:08.663Z,0.70
2023-05-14T18:13:35.463Z,1.20
2023-05-14T18:16:02.300Z,1.20
2023-05-14T18:18:29.018Z,1.30
2023-05-14T18:20:55.661Z,1.30
2023-05-14T18:23:22.496Z,1.77
2023-05-14T18:25:49.235Z,1.10
2023-05-14T18:28:16.063Z,0.77
2023-05-14T18:30:43.759Z,0.63
2023-05-14T18:33:10.654Z,1.20
2023-05-14T18:35:37.521Z,0.90
2023-05-14T18:38:04.433Z,0.70
2023-05-14T18:40:31.099Z,0.87
2023-05-14T18:42:58.112Z,1.67
2023-05-14T18:45:25.063Z,1.20
2023-05-14T18:47:52.160Z,0.70
2023-05-14T18:50:19.162Z,1.47
2023-05-14T18:52:45.821Z,2.43
2023-05-14T18:55:13.020Z,1.37
2023-05-14T18:57:39.731Z,1.67
2023-05-14T19:00:07.362Z,1.53
2023-05-14T19:02:34.051Z,1.30
2023-05-14T19:05:01.433Z,1.30
2023-05-14T19:07:30.337Z,1.90
2023-05-14T19:09:57.188Z,1.70
2023-05-14T19:12:23.909Z,1.60
2023-05-14T19:14:50.610Z,1.70
2023-05-14T19:17:18.604Z,0.97
2023-05-14T19:19:47.109Z,1.07
2023-05-14T19:22:13.935Z,1.50
2023-05-14T19:24:40.767Z,1.77
2023-05-14T19:27:08.002Z,1.33
2023-05-14T19:29:36.890Z,1.23
2023-05-14T19:32:04.748Z,1.23
2023-05-14T19:34:31.655Z,1.60
2023-05-14T19:36:58.388Z,2.07
2023-05-14T19:39:24.949Z,1.70
2023-05-14T19:41:51.707Z,1.67
2023-05-14T19:44:18.521Z,2.33
2023-05-14T19:46:45.356Z,1.57
2023-05-14T19:49:12.891Z,1.40
2023-05-14T19:51:39.714Z,1.30
2023-05-14T19:54:06.888Z,1.07
2023-05-14T19:56:33.693Z,0.57
2023-05-14T19:59:00.410Z,0.57
2023-05-14T20:01:27.605Z,1.30
2023-05-14T20:03:54.251Z,1.00
2023-05-14T20:06:21.259Z,1.37
2023-05-14T20:08:47.998Z,0.77
2023-05-14T20:11:15.771Z,0.63
2023-05-14T20:13:42.584Z,1.50
2023-05-14T20:16:09.228Z,1.30
2023-05-14T20:18:36.330Z,1.20
2023-05-14T20:21:03.092Z,1.10
2023-05-14T20:23:29.828Z,1.40
2023-05-14T20:25:56.795Z,1.53
2023-05-14T20:28:23.447Z,1.20
2023-05-14T20:30:50.146Z,1.77
2023-05-14T20:33:17.015Z,1.50
2023-05-14T20:35:44.306Z,1.50
2023-05-14T20:38:12.943Z,1.20
2023-05-14T20:40:40.024Z,1.57
2023-05-14T20:43:06.718Z,1.57
2023-05-14T20:45:33.358Z,2.10
2023-05-14T20:48:00.093Z,1.30
2023-05-14T20:50:27.971Z,2.00
2023-05-14T20:52:55.403Z,1.80
2023-05-14T20:55:22.530Z,1.23
2023-05-14T20:57:49.772Z,1.60
2023-05-14T21:00:16.852Z,1.73
2023-05-14T21:02:43.617Z,1.53
2023-05-14T21:05:10.544Z,1.93
2023-05-14T21:07:37.474Z,1.33
2023-05-14T21:10:04.709Z,1.10
2023-05-14T21:12:31.432Z,1.70
2023-05-14T21:14:58.004Z,1.47
2023-05-14T21:17:24.743Z,1.40
2023-05-14T21:19:51.337Z,1.60
2023-05-14T21:22:18.075Z,1.10
2023-05-14T21:24:44.669Z,1.20
2023-05-14T21:27:11.526Z,1.60
2023-05-14T21:29:38.630Z,1.27
2023-05-14T21:32:05.913Z,1.40
2023-05-14T21:34:32.834Z,1.10
2023-05-14T21:36:59.493Z,1.20
2023-05-14T21:39:26.112Z,2.17
2023-05-14T21:41:52.694Z,0.73
2023-05-14T21:44:19.302Z,1.23
2023-05-14T21:46:45.959Z,1.23
2023-05-14T21:49:12.609Z,0.97
2023-05-14T21:51:39.198Z,1.00
2023-05-14T21:54:06.821Z,0.97
2023-05-14T21:56:35.455Z,1.30
2023-05-14T21:59:02.078Z,1.37
2023-05-14T22:01:28.797Z,1.23
2023-05-14T22:03:57.119Z,0.90
2023-05-14T22:06:24.488Z,1.00
2023-05-14T22:08:51.259Z,0.97
2023-05-14T22:11:17.916Z,1.27
2023-05-14T22:13:44.609Z,0.90
2023-05-14T22:16:14.045Z,0.80
2023-05-14T22:18:41.099Z,1.33
2023-05-14T22:21:07.922Z,0.83
2023-05-14T22:23:34.652Z,1.10
2023-05-14T22:26:01.380Z,1.00
2023-05-14T22:28:28.011Z,1.10
2023-05-14T22:30:56.533Z,1.70
2023-05-14T22:33:23.313Z,1.67
2023-05-14T22:35:49.967Z,1.57
2023-05-14T22:38:16.592Z,1.97
2023-05-14T22:40:43.253Z,1.93
2023-05-14T22:43:09.901Z,1.47
2023-05-14T22:45:36.493Z,1.63
2023-05-14T22:48:03.158Z,1.27
2023-05-14T22:50:29.825Z,1.27
2023-05-14T22:52:56.420Z,1.80
2023-05-14T22:55:23.123Z,1.70
2023-05-14T22:57:49.986Z,1.07
2023-05-14T23:00:16.738Z,1.10
2023-05-14T23:02:43.514Z,1.47
2023-05-14T23:05:10.395Z,0.80
2023-05-14T23:07:37.131Z,1.00
2023-05-14T23:10:04.195Z,0.63
2023-05-14T23:12:30.919Z,0.83
2023-05-14T23:14:59.270Z,0.80
2023-05-14T23:17:26.295Z,0.53
2023-05-14T23:19:53.222Z,0.73
2023-05-14T23:22:20.398Z,0.80
2023-05-14T23:24:47.156Z,0.80
2023-05-14T23:27:13.860Z,0.50
2023-05-14T23:29:40.674Z,0.67
2023-05-14T23:32:08.447Z,0.40
2023-05-14T23:34:35.522Z,0.60
2023-05-14T23:37:02.337Z,0.57
2023-05-14T23:39:29.036Z,0.40
2023-05-14T23:41:55.816Z,0.40
2023-05-14T23:44:22.672Z,0.40
2023-05-14T23:46:49.596Z,0.87
2023-05-14T23:49:16.395Z,0.40
2023-05-14T23:51:43.167Z,0.70
2023-05-14T23:54:09.971Z,1.50
2023-05-14T23:56:36.762Z,0.50
2023-05-14T23:59:03.790Z,0.50
